createdAt,value
2018-09-08T00:00:29.356Z,101389.17
2018-09-08T00:02:56.658Z,101389.02
2018-09-08T00:05:24.001Z,101391.56
2018-09-08T00:07:51.858Z,101394.01
2018-09-08T00:10:19.312Z,101386.56
2018-09-08T00:12:47.681Z,101389.45
2018-09-08T00:15:20.616Z,101385.58
2018-09-08T00:17:53.601Z,101383.80
2018-09-08T00:20:26.558Z,101384.64
2018-09-08T00:23:06.508Z,101386.64
2018-09-08T00:25:39.630Z,101390.55
2018-09-08T00:28:17.707Z,101390.07
2018-09-08T00:30:45.254Z,101388.28
2018-09-08T00:33:12.532Z,101388.97
2018-09-08T00:35:39.927Z,101389.52
2018-09-08T00:38:07.490Z,101392.22
2018-09-08T00:40:36.009Z,101392.80
2018-09-08T00:43:03.498Z,101388.76
2018-09-08T00:45:30.837Z,101398.04
2018-09-08T00:47:58.254Z,101403.64
2018-09-08T00:50:26.031Z,101395.72
2018-09-08T00:52:53.328Z,101404.19
2018-09-08T00:55:20.581Z,101404.24
2018-09-08T00:57:47.853Z,101398.53
2018-09-08T01:00:15.216Z,101401.78
2018-09-08T01:02:42.697Z,101409.94
2018-09-08T01:05:10.034Z,101403.16
2018-09-08T01:07:37.563Z,101389.08
2018-09-08T01:10:05.038Z,101410.48
2018-09-08T01:12:32.466Z,101412.75
2018-09-08T01:15:00.792Z,101409.48
2018-09-08T01:17:28.989Z,101410.66
2018-09-08T01:19:56.543Z,101414.02
2018-09-08T01:22:24.205Z,101416.89
2018-09-08T01:24:51.821Z,101417.17
2018-09-08T01:27:19.376Z,101393.92
2018-09-08T01:29:46.660Z,101412.80
2018-09-08T01:32:14.118Z,101416.05
2018-09-08T01:34:41.414Z,101419.56
2018-09-08T01:37:09.078Z,101424.23
2018-09-08T01:39:36.366Z,101422.49
2018-09-08T01:42:03.678Z,101423.81
2018-09-08T01:44:30.933Z,101425.01
2018-09-08T01:46:58.597Z,101430.64
2018-09-08T01:49:26.605Z,101433.61
2018-09-08T01:51:53.868Z,101436.97
2018-09-08T01:54:21.126Z,101440.17
2018-09-08T01:56:48.347Z,101434.02
2018-09-08T01:59:15.733Z,101431.58
2018-09-08T02:01:42.949Z,101434.55
2018-09-08T02:04:10.814Z,101434.14
2018-09-08T02:06:39.933Z,101435.25
2018-09-08T02:09:07.207Z,101435.11
2018-09-08T02:11:34.591Z,101435.97
2018-09-08T02:14:02.006Z,101440.13
2018-09-08T02:16:30.372Z,101431.77
2018-09-08T02:18:57.717Z,101438.41
2018-09-08T02:21:25.040Z,101443.05
2018-09-08T02:23:52.285Z,101442.53
2018-09-08T02:26:19.571Z,101440.15
2018-09-08T02:28:46.776Z,101440.92
2018-09-08T02:31:14.038Z,101426.14
2018-09-08T02:33:41.890Z,101433.91
2018-09-08T02:36:09.172Z,101426.30
2018-09-08T02:38:36.441Z,101439.29
2018-09-08T02:41:04.712Z,101441.49
2018-09-08T02:43:31.977Z,101437.31
2018-09-08T02:45:59.220Z,101435.62
2018-09-08T02:48:26.479Z,101432.65
2018-09-08T02:50:52.741Z,101440.34
2018-09-08T02:53:18.954Z,101435.45
2018-09-08T02:55:45.231Z,101436.38
2018-09-08T02:58:11.694Z,101433.69
2018-09-08T03:00:37.929Z,101438.41
2018-09-08T03:03:04.226Z,101438.59
2018-09-08T03:05:30.499Z,101441.66
2018-09-08T03:07:56.770Z,101444.90
2018-09-08T03:10:22.977Z,101446.75
2018-09-08T03:12:51.150Z,101441.54
2018-09-08T03:15:17.625Z,101453.32
2018-09-08T03:17:44.155Z,101451.64
2018-09-08T03:20:10.437Z,101448.44
2018-09-08T03:22:36.926Z,101455.02
2018-09-08T03:25:03.397Z,101456.03
2018-09-08T03:27:29.627Z,101457.70
2018-09-08T03:29:56.045Z,101457.92
2018-09-08T03:32:22.259Z,101464.78
2018-09-08T03:34:48.482Z,101458.89
2018-09-08T03:37:14.698Z,101458.22
2018-09-08T03:39:40.951Z,101460.95
2018-09-08T03:42:07.189Z,101463.44
2018-09-08T03:44:33.446Z,101467.52
2018-09-08T03:46:59.689Z,101457.08
2018-09-08T03:49:25.910Z,101458.59
2018-09-08T03:51:52.177Z,101461.96
2018-09-08T03:54:18.431Z,101465.83
2018-09-08T03:56:44.679Z,101469.87
2018-09-08T03:59:10.873Z,101467.34
2018-09-08T04:01:37.154Z,101466.34
2018-09-08T04:04:04.576Z,101466.34
2018-09-08T04:06:32.062Z,101463.14
2018-09-08T04:08:59.562Z,101453.72
2018-09-08T04:11:26.806Z,101464.98
2018-09-08T04:13:54.015Z,101458.27
2018-09-08T04:16:21.594Z,101456.24
2018-09-08T04:18:49.644Z,101455.06
2018-09-08T04:21:16.866Z,101454.05
2018-09-08T04:23:45.061Z,101452.54
2018-09-08T04:26:12.619Z,101458.59
2018-09-08T04:28:40.830Z,101453.72
2018-09-08T04:31:08.137Z,101465.33
2018-09-08T04:33:35.684Z,101457.42
2018-09-08T04:36:03.397Z,101461.63
2018-09-08T04:38:30.684Z,101458.93
2018-09-08T04:40:57.963Z,101456.23
2018-09-08T04:43:25.758Z,101461.45
2018-09-08T04:45:53.923Z,101456.58
2018-09-08T04:48:21.382Z,101460.28
2018-09-08T04:50:48.798Z,101461.45
2018-09-08T04:53:16.039Z,101450.31
2018-09-08T04:55:43.325Z,101457.72
2018-09-08T04:58:10.624Z,101451.49
2018-09-08T05:00:38.146Z,101462.75
2018-09-08T05:03:05.829Z,101460.06
2018-09-08T05:05:33.293Z,101460.06
2018-09-08T05:08:00.628Z,101459.22
2018-09-08T05:10:27.873Z,101459.55
2018-09-08T05:12:55.790Z,101458.55
2018-09-08T05:15:23.381Z,101455.33
2018-09-08T05:17:50.696Z,101455.32
2018-09-08T05:20:18.385Z,101456.00
2018-09-08T05:22:45.709Z,101451.62
2018-09-08T05:25:13.626Z,101448.22
2018-09-08T05:27:40.987Z,101452.56
2018-09-08T05:30:08.434Z,101442.81
2018-09-08T05:32:35.908Z,101458.45
2018-09-08T05:35:03.257Z,101459.95
2018-09-08T05:37:30.837Z,101463.17
2018-09-08T05:39:58.198Z,101467.84
2018-09-08T05:42:25.518Z,101461.61
2018-09-08T05:44:52.889Z,101469.64
2018-09-08T05:47:20.287Z,101468.64
2018-09-08T05:49:47.764Z,101469.47
2018-09-08T05:52:15.025Z,101463.75
2018-09-08T05:54:42.721Z,101465.05
2018-09-08T05:57:10.152Z,101466.56
2018-09-08T05:59:38.089Z,101471.55
2018-09-08T06:02:05.399Z,101481.67
2018-09-08T06:04:32.755Z,101482.14
2018-09-08T06:07:03.761Z,101464.77
2018-09-08T06:09:32.448Z,101477.72
2018-09-08T06:11:59.895Z,101478.05
2018-09-08T06:14:27.575Z,101484.41
2018-09-08T06:16:56.045Z,101472.19
2018-09-08T06:19:25.442Z,101478.98
2018-09-08T06:21:52.856Z,101485.70
2018-09-08T06:24:20.867Z,101486.97
2018-09-08T06:26:48.074Z,101485.14
2018-09-08T06:29:15.718Z,101483.22
2018-09-08T06:31:43.483Z,101483.76
2018-09-08T06:34:10.776Z,101488.88
2018-09-08T06:36:38.207Z,101495.13
2018-09-08T06:39:07.624Z,101487.18
2018-09-08T06:41:35.230Z,101484.64
2018-09-08T06:44:02.664Z,101491.22
2018-09-08T06:46:30.778Z,101489.53
2018-09-08T06:48:59.487Z,101491.77
2018-09-08T06:51:28.790Z,101497.64
2018-09-08T06:53:57.720Z,101482.31
2018-09-08T06:56:27.015Z,101481.84
2018-09-08T06:58:57.202Z,101491.51
2018-09-08T07:01:26.265Z,101483.38
2018-09-08T07:03:53.719Z,101483.44
2018-09-08T07:06:21.208Z,101486.38
2018-09-08T07:08:48.806Z,101487.72
2018-09-08T07:11:16.682Z,101493.34
2018-09-08T07:13:43.981Z,101496.62
2018-09-08T07:16:12.057Z,101492.75
2018-09-08T07:18:39.486Z,101490.70
2018-09-08T07:21:06.780Z,101492.09
2018-09-08T07:23:34.085Z,101487.30
2018-09-08T07:26:02.133Z,101488.90
2018-09-08T07:28:30.493Z,101489.83
2018-09-08T07:30:58.020Z,101491.03
2018-09-08T07:33:25.275Z,101487.08
2018-09-08T07:35:52.600Z,101490.63
2018-09-08T07:38:19.925Z,101486.82
2018-09-08T07:40:47.244Z,101484.50
2018-09-08T07:43:14.801Z,101487.34
2018-09-08T07:45:42.433Z,101495.45
2018-09-08T07:48:09.969Z,101502.45
2018-09-08T07:50:37.429Z,101505.02
2018-09-08T07:53:05.234Z,101504.88
2018-09-08T07:55:32.494Z,101515.33
2018-09-08T07:58:00.812Z,101513.53
2018-09-08T08:00:28.125Z,101513.63
2018-09-08T08:02:55.479Z,101514.34
2018-09-08T08:05:22.905Z,101513.67
2018-09-08T08:07:50.200Z,101514.30
2018-09-08T08:10:17.541Z,101517.31
2018-09-08T08:12:45.702Z,101519.83
2018-09-08T08:15:13.947Z,101521.39
2018-09-08T08:17:41.307Z,101516.61
2018-09-08T08:20:08.750Z,101517.45
2018-09-08T08:22:36.650Z,101524.08
2018-09-08T08:25:04.469Z,101519.92
2018-09-08T08:27:32.373Z,101523.19
2018-09-08T08:29:59.961Z,101527.93
2018-09-08T08:32:27.761Z,101529.55
2018-09-08T08:34:55.065Z,101522.85
2018-09-08T08:37:22.383Z,101527.62
2018-09-08T08:39:50.283Z,101528.92
2018-09-08T08:42:18.152Z,101531.94
2018-09-08T08:44:45.863Z,101532.84
2018-09-08T08:47:13.571Z,101537.23
2018-09-08T08:49:41.555Z,101536.79
2018-09-08T08:52:20.704Z,101541.34
2018-09-08T08:54:52.184Z,101537.69
2018-09-08T08:57:20.037Z,101543.02
2018-09-08T08:59:47.672Z,101545.22
2018-09-08T09:02:15.567Z,101544.59
2018-09-08T09:04:43.032Z,101547.08
2018-09-08T09:07:12.452Z,101540.78
2018-09-08T09:09:40.632Z,101542.14
2018-09-08T09:12:07.997Z,101550.33
2018-09-08T09:14:36.053Z,101543.98
2018-09-08T09:17:04.148Z,101546.52
2018-09-08T09:19:43.269Z,101542.33
2018-09-08T09:22:26.375Z,101542.72
2018-09-08T09:25:03.662Z,101551.81
2018-09-08T09:27:32.209Z,101543.69
2018-09-08T09:30:00.145Z,101544.45
2018-09-08T09:32:27.720Z,101547.67
2018-09-08T09:34:56.153Z,101544.69
2018-09-08T09:37:23.544Z,101553.93
2018-09-08T09:39:51.705Z,101549.03
2018-09-08T09:42:19.201Z,101550.50
2018-09-08T09:44:46.503Z,101544.72
2018-09-08T09:47:13.902Z,101554.38
2018-09-08T09:49:41.265Z,101559.48
2018-09-08T09:52:08.661Z,101542.98
2018-09-08T09:54:36.048Z,101549.47
2018-09-08T09:57:03.464Z,101552.08
2018-09-08T09:59:30.867Z,101558.81
2018-09-08T10:02:07.787Z,101547.23
2018-09-08T10:04:35.256Z,101552.63
2018-09-08T10:07:02.825Z,101551.44
2018-09-08T10:09:30.171Z,101556.64
2018-09-08T10:11:58.394Z,101566.76
2018-09-08T10:14:26.522Z,101559.35
2018-09-08T10:16:53.833Z,101569.09
2018-09-08T10:19:21.528Z,101569.91
2018-09-08T10:21:48.811Z,101560.41
2018-09-08T10:24:16.409Z,101572.14
2018-09-08T10:26:43.762Z,101570.51
2018-09-08T10:29:11.232Z,101565.62
2018-09-08T10:31:38.831Z,101566.80
2018-09-08T10:34:06.664Z,101566.30
2018-09-08T10:36:34.088Z,101578.56
2018-09-08T10:39:01.625Z,101565.92
2018-09-08T10:41:29.433Z,101569.59
2018-09-08T10:43:57.740Z,101569.28
2018-09-08T10:46:25.886Z,101580.80
2018-09-08T10:48:53.345Z,101576.93
2018-09-08T10:51:34.454Z,101575.89
2018-09-08T10:54:02.071Z,101573.70
2018-09-08T10:56:29.689Z,101578.31
2018-09-08T10:58:57.472Z,101582.09
2018-09-08T11:01:25.205Z,101581.95
2018-09-08T11:03:53.383Z,101585.84
2018-09-08T11:06:21.271Z,101591.48
2018-09-08T11:08:49.037Z,101587.83
2018-09-08T11:11:17.029Z,101580.62
2018-09-08T11:13:44.950Z,101589.83
2018-09-08T11:16:12.627Z,101586.48
2018-09-08T11:18:40.152Z,101588.97
2018-09-08T11:21:07.542Z,101592.11
2018-09-08T11:23:35.088Z,101590.19
2018-09-08T11:26:02.591Z,101581.12
2018-09-08T11:28:31.010Z,101579.52
2018-09-08T11:30:58.948Z,101578.73
2018-09-08T11:33:27.347Z,101588.25
2018-09-08T11:35:55.047Z,101577.23
2018-09-08T11:38:23.229Z,101581.17
2018-09-08T11:40:50.824Z,101582.00
2018-09-08T11:43:18.232Z,101572.87
2018-09-08T11:45:45.681Z,101571.39
2018-09-08T11:48:13.154Z,101578.06
2018-09-08T11:50:40.798Z,101584.27
2018-09-08T11:53:08.273Z,101592.86
2018-09-08T11:55:35.936Z,101595.41
2018-09-08T11:58:03.369Z,101586.23
2018-09-08T12:00:30.839Z,101597.98
2018-09-08T12:02:58.374Z,101594.84
2018-09-08T12:05:25.686Z,101590.22
2018-09-08T12:07:53.893Z,101588.85
2018-09-08T12:10:21.468Z,101594.30
2018-09-08T12:12:49.194Z,101594.43
2018-09-08T12:15:16.776Z,101592.00
2018-09-08T12:17:44.422Z,101601.54
2018-09-08T12:20:11.923Z,101596.91
2018-09-08T12:22:41.144Z,101598.80
2018-09-08T12:25:08.640Z,101605.28
2018-09-08T12:27:36.085Z,101608.67
2018-09-08T12:30:03.778Z,101607.64
2018-09-08T12:32:31.265Z,101608.80
2018-09-08T12:34:58.874Z,101621.37
2018-09-08T12:37:26.260Z,101613.59
2018-09-08T12:39:53.632Z,101623.47
2018-09-08T12:42:21.347Z,101619.14
2018-09-08T12:44:48.685Z,101617.67
2018-09-08T12:47:16.058Z,101620.93
2018-09-08T12:49:43.370Z,101623.82
2018-09-08T12:52:10.753Z,101621.67
2018-09-08T12:54:38.120Z,101618.89
2018-09-08T12:57:05.702Z,101618.19
2018-09-08T12:59:33.062Z,101621.13
2018-09-08T13:02:00.635Z,101616.56
2018-09-08T13:04:28.918Z,101615.33
2018-09-08T13:06:56.338Z,101620.37
2018-09-08T13:09:23.809Z,101614.21
2018-09-08T13:11:51.202Z,101607.83
2018-09-08T13:14:18.519Z,101606.92
2018-09-08T13:16:45.777Z,101618.94
2018-09-08T13:19:13.110Z,101613.37
2018-09-08T13:21:40.423Z,101616.80
2018-09-08T13:24:07.865Z,101618.45
2018-09-08T13:26:35.320Z,101621.34
2018-09-08T13:29:02.674Z,101608.03
2018-09-08T13:31:30.107Z,101609.81
2018-09-08T13:33:58.494Z,101608.05
2018-09-08T13:36:25.945Z,101594.61
2018-09-08T13:38:53.619Z,101591.52
2018-09-08T13:41:20.922Z,101593.66
2018-09-08T13:43:48.657Z,101597.95
2018-09-08T13:46:16.516Z,101603.25
2018-09-08T13:48:43.933Z,101610.59
2018-09-08T13:51:11.605Z,101605.63
2018-09-08T13:53:39.725Z,101602.25
2018-09-08T13:56:07.378Z,101611.38
2018-09-08T13:58:34.742Z,101609.46
2018-09-08T14:01:02.114Z,101616.98
2018-09-08T14:03:29.535Z,101611.42
2018-09-08T14:05:56.971Z,101615.80
2018-09-08T14:08:24.307Z,101600.78
2018-09-08T14:10:51.708Z,101608.44
2018-09-08T14:13:19.095Z,101605.81
2018-09-08T14:15:46.565Z,101614.14
2018-09-08T14:18:13.945Z,101621.80
2018-09-08T14:20:41.603Z,101618.00
2018-09-08T14:23:09.040Z,101618.83
2018-09-08T14:25:36.758Z,101615.41
2018-09-08T14:28:04.229Z,101611.65
2018-09-08T14:30:31.563Z,101615.95
2018-09-08T14:32:59.115Z,101613.73
2018-09-08T14:35:26.733Z,101620.94
2018-09-08T14:37:54.302Z,101611.16
2018-09-08T14:40:21.849Z,101622.37
2018-09-08T14:42:49.590Z,101622.63
2018-09-08T14:45:17.006Z,101625.19
2018-09-08T14:47:44.441Z,101628.33
2018-09-08T14:50:11.900Z,101624.86
2018-09-08T14:52:39.947Z,101621.82
2018-09-08T14:55:07.255Z,101620.91
2018-09-08T14:57:34.766Z,101616.22
2018-09-08T15:00:02.418Z,101616.98
2018-09-08T15:02:29.855Z,101617.09
2018-09-08T15:04:57.578Z,101615.34
2018-09-08T15:07:24.921Z,101615.78
2018-09-08T15:09:52.354Z,101611.31
2018-09-08T15:12:19.962Z,101618.35
2018-09-08T15:14:47.323Z,101608.72
2018-09-08T15:17:14.692Z,101607.02
2018-09-08T15:19:42.084Z,101601.00
2018-09-08T15:22:09.775Z,101602.23
2018-09-08T15:24:37.317Z,101607.58
2018-09-08T15:27:05.288Z,101608.84
2018-09-08T15:29:32.854Z,101602.21
2018-09-08T15:32:00.188Z,101608.95
2018-09-08T15:34:27.824Z,101604.47
2018-09-08T15:36:55.245Z,101602.02
2018-09-08T15:39:22.617Z,101600.78
2018-09-08T15:41:50.093Z,101593.64
2018-09-08T15:44:18.014Z,101601.19
2018-09-08T15:46:45.611Z,101589.15
2018-09-08T15:49:13.043Z,101598.97
2018-09-08T15:51:40.356Z,101600.36
2018-09-08T15:54:07.715Z,101605.55
2018-09-08T15:56:35.233Z,101595.09
2018-09-08T15:59:02.633Z,101596.97
2018-09-08T16:01:30.215Z,101603.02
2018-09-08T16:03:57.933Z,101603.57
2018-09-08T16:06:25.187Z,101602.92
2018-09-08T16:08:53.002Z,101600.84
2018-09-08T16:11:20.303Z,101603.03
2018-09-08T16:13:47.617Z,101608.28
2018-09-08T16:16:15.109Z,101607.42
2018-09-08T16:18:42.641Z,101596.92
2018-09-08T16:21:10.008Z,101605.19
2018-09-08T16:23:37.985Z,101605.17
2018-09-08T16:26:06.011Z,101601.38
2018-09-08T16:28:33.460Z,101602.00
2018-09-08T16:31:00.862Z,101601.25
2018-09-08T16:33:28.396Z,101600.64
2018-09-08T16:35:55.909Z,101593.77
2018-09-08T16:38:23.718Z,101597.21
2018-09-08T16:40:51.130Z,101599.56
2018-09-08T16:43:19.247Z,101594.33
2018-09-08T16:45:46.962Z,101590.45
2018-09-08T16:48:14.346Z,101586.45
2018-09-08T16:50:42.264Z,101589.48
2018-09-08T16:53:09.707Z,101581.16
2018-09-08T16:55:37.144Z,101586.45
2018-09-08T16:58:04.931Z,101586.02
2018-09-08T17:00:32.948Z,101582.85
2018-09-08T17:03:00.571Z,101581.30
2018-09-08T17:05:27.993Z,101578.00
2018-09-08T17:07:55.339Z,101578.98
2018-09-08T17:10:22.793Z,101573.11
2018-09-08T17:12:50.157Z,101567.19
2018-09-08T17:15:17.518Z,101570.58
2018-09-08T17:17:44.912Z,101569.05
2018-09-08T17:20:14.377Z,101569.44
2018-09-08T17:22:42.672Z,101567.24
2018-09-08T17:25:10.122Z,101572.66
2018-09-08T17:27:38.137Z,101573.06
2018-09-08T17:30:08.384Z,101572.34
2018-09-08T17:32:36.024Z,101572.66
2018-09-08T17:35:03.413Z,101571.36
2018-09-08T17:37:30.797Z,101561.04
2018-09-08T17:39:58.174Z,101568.00
2018-09-08T17:42:25.494Z,101570.06
2018-09-08T17:44:53.037Z,101566.52
2018-09-08T17:47:20.494Z,101567.30
2018-09-08T17:49:48.346Z,101563.75
2018-09-08T17:52:15.971Z,101557.81
2018-09-08T17:54:43.657Z,101564.66
2018-09-08T17:57:11.051Z,101561.68
2018-09-08T17:59:38.780Z,101555.48
2018-09-08T18:02:06.138Z,101557.88
2018-09-08T18:04:33.407Z,101558.14
2018-09-08T18:07:00.678Z,101559.20
2018-09-08T18:09:27.965Z,101556.72
2018-09-08T18:11:55.453Z,101560.40
2018-09-08T18:14:22.831Z,101558.91
2018-09-08T18:16:50.107Z,101549.20
2018-09-08T18:19:17.447Z,101556.65
2018-09-08T18:21:44.948Z,101564.20
2018-09-08T18:24:12.210Z,101563.55
2018-09-08T18:26:40.562Z,101562.84
2018-09-08T18:29:07.887Z,101562.77
2018-09-08T18:31:35.191Z,101566.32
2018-09-08T18:34:02.698Z,101566.90
2018-09-08T18:36:30.055Z,101563.34
2018-09-08T18:38:58.211Z,101564.91
2018-09-08T18:41:25.618Z,101567.80
2018-09-08T18:43:53.119Z,101560.19
2018-09-08T18:46:21.169Z,101561.55
2018-09-08T18:48:48.453Z,101561.42
2018-09-08T18:51:16.307Z,101564.16
2018-09-08T18:53:44.452Z,101562.27
2018-09-08T18:56:11.931Z,101559.41
2018-09-08T18:58:39.448Z,101557.17
2018-09-08T19:01:07.242Z,101555.53
2018-09-08T19:03:34.990Z,101557.50
2018-09-08T19:06:02.341Z,101563.88
2018-09-08T19:08:35.882Z,101565.46
2018-09-08T19:11:03.513Z,101560.16
2018-09-08T19:13:30.861Z,101563.05
2018-09-08T19:15:58.402Z,101555.59
2018-09-08T19:18:25.688Z,101554.94
2018-09-08T19:20:53.078Z,101551.45
2018-09-08T19:23:20.468Z,101552.09
2018-09-08T19:25:47.748Z,101559.13
2018-09-08T19:28:15.185Z,101563.57
2018-09-08T19:30:42.896Z,101560.11
2018-09-08T19:33:10.454Z,101557.97
2018-09-08T19:35:39.178Z,101551.98
2018-09-08T19:38:06.725Z,101546.03
2018-09-08T19:40:40.010Z,101549.25
2018-09-08T19:43:07.630Z,101551.58
2018-09-08T19:45:35.216Z,101532.98
2018-09-08T19:48:07.303Z,101547.86
2018-09-08T19:50:35.473Z,101549.47
2018-09-08T19:53:08.701Z,101548.17
2018-09-08T19:55:36.301Z,101551.85
2018-09-08T19:58:09.312Z,101556.61
2018-09-08T20:00:36.691Z,101561.19
2018-09-08T20:03:04.915Z,101561.52
2018-09-08T20:05:32.669Z,101559.45
2018-09-08T20:08:00.051Z,101566.36
2018-09-08T20:10:28.476Z,101568.36
2018-09-08T20:12:56.698Z,101560.89
2018-09-08T20:15:24.374Z,101571.20
2018-09-08T20:17:52.001Z,101574.67
2018-09-08T20:20:19.407Z,101557.97
2018-09-08T20:22:46.869Z,101563.11
2018-09-08T20:25:14.439Z,101557.08
2018-09-08T20:27:41.958Z,101549.47
2018-09-08T20:30:09.833Z,101553.25
2018-09-08T20:32:37.899Z,101554.70
2018-09-08T20:35:05.746Z,101547.67
2018-09-08T20:37:33.102Z,101538.72
2018-09-08T20:40:01.773Z,101543.84
2018-09-08T20:42:29.600Z,101543.86
2018-09-08T20:44:57.293Z,101550.16
2018-09-08T20:47:24.643Z,101547.62
2018-09-08T20:49:52.107Z,101558.36
2018-09-08T20:52:19.402Z,101551.77
2018-09-08T20:54:48.286Z,101550.67
2018-09-08T20:57:15.843Z,101555.33
2018-09-08T20:59:43.271Z,101547.16
2018-09-08T21:02:10.531Z,101550.44
2018-09-08T21:04:38.190Z,101542.79
2018-09-08T21:07:06.601Z,101544.23
2018-09-08T21:09:34.331Z,101536.08
2018-09-08T21:12:01.937Z,101536.94
2018-09-08T21:14:29.289Z,101529.50
2018-09-08T21:16:56.545Z,101537.64
2018-09-08T21:19:23.864Z,101528.22
2018-09-08T21:21:51.145Z,101535.94
2018-09-08T21:24:18.609Z,101533.82
2018-09-08T21:26:45.980Z,101530.69
2018-09-08T21:29:14.360Z,101530.12
2018-09-08T21:31:41.640Z,101524.20
2018-09-08T21:34:09.122Z,101526.11
2018-09-08T21:36:36.569Z,101529.84
2018-09-08T21:39:05.589Z,101521.83
2018-09-08T21:41:32.913Z,101517.59
2018-09-08T21:44:00.331Z,101521.27
2018-09-08T21:46:27.706Z,101531.25
2018-09-08T21:48:55.019Z,101529.30
2018-09-08T21:51:22.575Z,101526.13
2018-09-08T21:53:49.889Z,101523.61
2018-09-08T21:56:17.272Z,101522.48
2018-09-08T21:58:44.545Z,101523.19
2018-09-08T22:01:17.631Z,101524.05
2018-09-08T22:03:45.041Z,101524.14
2018-09-08T22:06:12.785Z,101518.42
2018-09-08T22:08:40.299Z,101523.23
2018-09-08T22:11:08.380Z,101517.08
2018-09-08T22:13:35.855Z,101503.03
2018-09-08T22:16:03.479Z,101514.23
2018-09-08T22:18:31.043Z,101514.19
2018-09-08T22:20:58.962Z,101513.58
2018-09-08T22:23:26.526Z,101522.40
2018-09-08T22:25:54.346Z,101522.79
2018-09-08T22:28:21.717Z,101520.08
2018-09-08T22:30:49.120Z,101516.98
2018-09-08T22:33:16.918Z,101501.55
2018-09-08T22:35:44.308Z,101524.55
2018-09-08T22:38:11.939Z,101524.47
2018-09-08T22:40:39.215Z,101530.79
2018-09-08T22:43:06.498Z,101526.00
2018-09-08T22:45:33.737Z,101518.80
2018-09-08T22:48:01.458Z,101512.04
2018-09-08T22:50:28.946Z,101521.99
2018-09-08T22:52:56.346Z,101506.69
2018-09-08T22:55:24.390Z,101526.22
2018-09-08T22:57:51.832Z,101526.00
2018-09-08T23:00:19.145Z,101527.69
2018-09-08T23:02:46.606Z,101530.90
2018-09-08T23:05:14.046Z,101519.37
2018-09-08T23:07:41.431Z,101526.86
2018-09-08T23:10:09.031Z,101527.98
2018-09-08T23:12:37.105Z,101526.41
2018-09-08T23:15:05.421Z,101528.62
2018-09-08T23:17:32.967Z,101531.73
2018-09-08T23:20:00.518Z,101526.84
2018-09-08T23:22:27.902Z,101532.23
2018-09-08T23:24:56.107Z,101537.10
2018-09-08T23:27:23.700Z,101536.77
2018-09-08T23:29:51.305Z,101530.25
2018-09-08T23:32:19.145Z,101524.84
2018-09-08T23:34:46.686Z,101523.86
2018-09-08T23:37:13.939Z,101523.62
2018-09-08T23:39:41.739Z,101528.06
2018-09-08T23:42:09.225Z,101519.29
2018-09-08T23:44:36.617Z,101524.33
2018-09-08T23:47:03.948Z,101533.19
2018-09-08T23:49:31.810Z,101531.23
2018-09-08T23:51:59.671Z,101536.55
2018-09-08T23:54:27.118Z,101527.03
2018-09-08T23:56:54.470Z,101533.73
2018-09-08T23:59:22.491Z,101534.56
